Time;durP1;ratioP1;P1;durP2;ratioP2;P2;SDS_P1;SDS_P2;PMS_P1;PMS_P2;Temp;Humidity;BMP_temperature;BMP_pressure;BME280_temperature;BME280_humidity;BME280_pressure;Samples;Min_cycle;Max_cycle;Signal;HPM_P1;HPM_P2
2023/07/27 00:01:47;;;;;;;4.60;1.45;;;;;;;22.31;62.86;100518.38;5111311;28;20054;-64
2023/07/27 00:04:14;;;;;;;5.85;1.23;;;;;;;22.30;63.33;100519.56;5109762;28;20829;-65
2023/07/27 00:06:41;;;;;;;4.20;1.40;;;;;;;22.24;63.46;100518.34;5110075;28;20048;-64
2023/07/27 00:09:09;;;;;;;5.32;1.30;;;;;;;22.18;63.93;100503.91;5111510;28;20051;-65
2023/07/27 00:11:36;;;;;;;4.00;1.40;;;;;;;22.13;64.59;100509.91;5092367;28;20048;-64
2023/07/27 00:14:04;;;;;;;4.95;1.50;;;;;;;21.99;65.19;100512.66;5111108;28;20047;-65
2023/07/27 00:16:31;;;;;;;7.07;1.52;;;;;;;21.94;65.58;100507.44;5111875;28;20051;-65
2023/07/27 00:18:59;;;;;;;5.85;1.60;;;;;;;22.10;65.37;100512.69;5110579;28;20055;-64
2023/07/27 00:21:27;;;;;;;5.30;1.40;;;;;;;22.00;66.10;100508.63;5111264;28;20526;-61
2023/07/27 00:23:54;;;;;;;3.75;1.30;;;;;;;21.95;66.39;100500.63;5107617;28;20047;-64
2023/07/27 00:26:21;;;;;;;4.25;1.38;;;;;;;21.99;66.96;100504.25;5111130;28;20169;-64
2023/07/27 00:28:49;;;;;;;4.82;1.23;;;;;;;22.29;65.97;100495.50;5090868;28;20055;-64
2023/07/27 00:31:17;;;;;;;4.97;1.33;;;;;;;22.20;66.18;100490.28;5091870;28;20592;-60
2023/07/27 00:33:45;;;;;;;4.97;1.40;;;;;;;21.97;67.67;100492.59;5110620;28;20054;-60
2023/07/27 00:36:13;;;;;;;2.75;1.20;;;;;;;22.09;67.68;100481.03;5093055;28;20043;-61
2023/07/27 00:38:41;;;;;;;5.28;1.40;;;;;;;22.06;67.69;100481.00;5111580;28;20075;-62
2023/07/27 00:41:09;;;;;;;4.43;1.48;;;;;;;21.83;68.97;100478.53;5109918;28;20463;-61
2023/07/27 00:43:37;;;;;;;4.13;1.50;;;;;;;21.88;68.79;100478.16;5092487;28;20576;-60
2023/07/27 00:46:05;;;;;;;2.75;1.10;;;;;;;21.98;68.82;100480.22;5091459;28;20052;-60
2023/07/27 00:48:32;;;;;;;5.70;1.60;;;;;;;21.95;68.73;100483.78;5109514;28;20544;-65
2023/07/27 00:51:00;;;;;;;4.22;1.40;;;;;;;22.11;68.50;100475.00;5111772;28;20039;-64
2023/07/27 00:53:27;;;;;;;3.60;1.20;;;;;;;22.16;68.77;100475.44;5093862;28;20044;-65
2023/07/27 00:55:57;;;;;;;4.90;1.15;;;;;;;22.09;69.02;100477.41;5091829;28;20040;-60
2023/07/27 00:58:25;;;;;;;4.10;1.45;;;;;;;21.98;69.09;100468.19;5085371;28;20047;-60
2023/07/27 01:00:53;;;;;;;3.60;1.55;;;;;;;21.94;69.61;100465.38;5073982;28;20054;-63
2023/07/27 01:03:20;;;;;;;3.80;1.30;;;;;;;21.77;70.24;100477.28;5109465;28;20052;-65
2023/07/27 01:05:48;;;;;;;4.40;1.40;;;;;;;21.82;70.67;100474.13;5092568;28;20058;-65
2023/07/27 01:08:15;;;;;;;3.67;1.17;;;;;;;21.90;70.02;100470.16;5109976;28;20604;-65
2023/07/27 01:10:42;;;;;;;3.40;1.50;;;;;;;21.97;69.66;100469.34;5112797;28;20521;-64
2023/07/27 01:13:18;;;;;;;3.95;1.48;;;;;;;21.73;70.56;100467.25;5112065;28;20044;-59
2023/07/27 01:15:50;;;;;;;6.18;1.50;;;;;;;21.70;70.82;100460.44;5114765;28;20047;-60
2023/07/27 01:18:33;;;;;;;3.42;1.40;;;;;;;21.90;70.21;100460.91;5061126;28;20578;-60
2023/07/27 01:21:10;;;;;;;2.45;1.20;;;;;;;21.75;70.45;100453.63;5112571;28;20659;-64
2023/07/27 01:23:59;;;;;;;6.15;1.58;;;;;;;21.73;70.74;100456.03;5094332;28;20044;-64
2023/07/27 01:26:38;;;;;;;3.50;1.30;;;;;;;21.75;70.75;100456.44;5112411;28;20074;-63
2023/07/27 01:29:43;;;;;;;4.03;1.40;;;;;;;21.81;70.02;100452.88;5113064;28;20043;-60
2023/07/27 01:32:12;;;;;;;6.15;1.45;;;;;;;21.80;70.27;100450.47;5094468;28;20117;-63
2023/07/27 01:34:42;;;;;;;4.68;1.48;;;;;;;21.70;70.42;100456.81;5095893;28;20137;-63
2023/07/27 01:37:09;;;;;;;;;;;;;;;21.74;70.70;100443.63;5114331;28;20051;-64
2023/07/27 01:39:43;;;;;;;3.80;1.63;;;;;;;21.71;70.62;100436.81;5095868;28;20307;-60
2023/07/27 01:42:13;;;;;;;3.65;1.25;;;;;;;21.66;70.66;100447.59;5108424;28;20040;-60
2023/07/27 01:44:40;;;;;;;2.83;1.10;;;;;;;21.78;70.03;100430.44;5114135;28;20739;-60
2023/07/27 01:47:08;;;;;;;4.53;1.27;;;;;;;21.75;70.04;100422.78;5094843;28;20047;-59
2023/07/27 01:49:38;;;;;;;1.80;1.00;;;;;;;21.70;70.15;100421.19;5095860;28;20051;-60
2023/07/27 01:52:07;;;;;;;1.98;1.08;;;;;;;21.67;70.34;100426.78;5113516;28;20040;-61
2023/07/27 01:54:35;;;;;;;4.35;1.25;;;;;;;21.60;70.42;100432.38;5113803;28;20056;-60
2023/07/27 01:57:03;;;;;;;4.85;0.95;;;;;;;21.76;69.77;100425.19;5077393;28;20040;-60
2023/07/27 01:59:30;;;;;;;3.20;0.98;;;;;;;21.88;68.92;100421.28;5094543;28;20051;-60
2023/07/27 02:01:58;;;;;;;5.60;1.20;;;;;;;21.58;70.11;100417.94;5070093;28;20055;-62
2023/07/27 02:04:29;;;;;;;5.40;1.40;;;;;;;21.38;71.07;100409.03;5095069;28;20063;-64
2023/07/27 02:06:56;;;;;;;2.10;1.02;;;;;;;21.46;71.53;100418.28;5068510;28;20057;-59
2023/07/27 02:09:25;;;;;;;1.92;1.10;;;;;;;21.50;70.75;100427.50;5092640;28;20058;-60
2023/07/27 02:12:00;;;;;;;5.57;1.20;;;;;;;21.61;69.86;100434.78;5096537;28;20391;-63
2023/07/27 02:14:42;;;;;;;3.70;1.10;;;;;;;21.26;71.31;100429.00;5095206;28;20047;-63
2023/07/27 02:17:18;;;;;;;1.70;1.00;;;;;;;21.19;71.78;100424.16;5077324;28;20058;-64
2023/07/27 02:19:49;;;;;;;2.80;1.15;;;;;;;21.26;71.72;100429.00;5112198;28;20051;-66
2023/07/27 02:22:17;;;;;;;4.30;1.02;;;;;;;21.36;71.27;100422.63;5092942;28;20039;-63
2023/07/27 02:24:44;;;;;;;2.63;1.08;;;;;;;21.38;71.37;100414.63;5111312;28;20050;-63
2023/07/27 02:27:12;;;;;;;3.63;1.02;;;;;;;21.39;70.85;100410.66;5095378;28;20051;-64
2023/07/27 02:29:40;;;;;;;3.15;1.15;;;;;;;21.57;70.33;100405.91;5094813;28;20058;-60
2023/07/27 02:32:07;;;;;;;3.28;1.10;;;;;;;21.41;70.95;100411.03;5113266;28;20410;-59
2023/07/27 02:34:37;;;;;;;4.78;1.35;;;;;;;21.14;71.69;100413.34;5095742;28;20051;-60
2023/07/27 02:37:06;;;;;;;3.17;1.05;;;;;;;21.04;72.80;100407.66;5110750;28;20051;-60
2023/07/27 02:39:33;;;;;;;3.05;0.93;;;;;;;21.05;72.45;100407.28;5112536;28;20075;-59
2023/07/27 02:42:01;;;;;;;2.45;1.00;;;;;;;21.19;72.23;100415.75;5093610;28;20047;-63
2023/07/27 02:44:28;;;;;;;2.97;1.10;;;;;;;21.03;72.52;100406.03;5111585;28;20433;-64
2023/07/27 02:46:55;;;;;;;2.05;1.00;;;;;;;20.92;73.19;100391.16;5073313;28;20540;-63
2023/07/27 02:49:23;;;;;;;2.63;1.08;;;;;;;21.17;72.79;100386.50;5089086;28;20048;-63
2023/07/27 02:51:51;;;;;;;3.72;1.05;;;;;;;21.07;72.76;100393.69;5096329;28;20044;-64
2023/07/27 02:54:18;;;;;;;4.07;1.27;;;;;;;21.25;71.57;100390.97;5093878;28;20047;-60
2023/07/27 02:56:48;;;;;;;2.20;0.90;;;;;;;21.04;72.72;100397.25;5106162;28;20048;-60
2023/07/27 02:59:17;;;;;;;2.53;0.98;;;;;;;20.96;73.37;100406.78;5109843;28;20047;-59
2023/07/27 03:01:45;;;;;;;2.50;1.10;;;;;;;21.00;73.09;100412.44;5111526;28;20043;-59
2023/07/27 03:04:19;;;;;;;1.50;0.75;;;;;;;20.86;73.41;100401.94;5093026;28;20047;-63
2023/07/27 03:06:47;;;;;;;3.85;1.00;;;;;;;20.86;74.32;100401.09;5097113;28;20483;-64
2023/07/27 03:09:17;;;;;;;2.13;1.00;;;;;;;21.01;72.99;100408.44;5095796;28;20039;-60
2023/07/27 03:11:44;;;;;;;3.42;1.10;;;;;;;20.85;73.71;100411.50;5098119;28;20893;-60
2023/07/27 03:14:12;;;;;;;3.15;0.80;;;;;;;20.78;74.42;100419.06;5109086;28;20051;-61
2023/07/27 03:16:39;;;;;;;2.22;1.02;;;;;;;20.80;74.28;100420.25;5093717;28;20419;-60
2023/07/27 03:19:06;;;;;;;3.33;1.17;;;;;;;21.13;73.90;100417.31;5111525;28;20066;-64
2023/07/27 03:21:34;;;;;;;4.10;1.00;;;;;;;21.33;71.66;100408.59;5076744;28;20052;-64
2023/07/27 03:24:02;;;;;;;1.67;0.93;;;;;;;20.87;73.76;100397.91;5093290;28;20055;-64
2023/07/27 03:26:29;;;;;;;3.28;0.93;;;;;;;20.65;74.74;100409.34;5094070;28;20521;-59
2023/07/27 03:28:56;;;;;;;2.53;1.00;;;;;;;20.98;74.08;100410.03;5088143;28;20044;-60
2023/07/27 03:31:27;;;;;;;2.55;0.90;;;;;;;21.12;72.70;100410.13;5093981;28;20063;-62
2023/07/27 03:33:54;;;;;;;3.53;1.00;;;;;;;21.01;73.73;100416.81;5070663;28;20186;-63
2023/07/27 03:36:22;;;;;;;2.60;1.10;;;;;;;21.20;72.86;100428.56;5078694;28;20067;-60
2023/07/27 03:38:49;;;;;;;2.10;0.90;;;;;;;21.12;72.89;100418.53;5084829;28;20513;-60
2023/07/27 03:41:17;;;;;;;1.60;0.90;;;;;;;20.93;74.16;100406.75;5091603;28;20052;-59
2023/07/27 03:43:45;;;;;;;2.85;0.98;;;;;;;20.89;74.44;100403.94;5093649;28;20392;-60
2023/07/27 03:46:12;;;;;;;4.05;1.20;;;;;;;20.66;75.52;100414.56;5110418;28;20051;-59
2023/07/27 03:48:40;;;;;;;3.22;0.70;;;;;;;20.94;74.43;100417.56;5110293;28;20066;-60
2023/07/27 03:51:08;;;;;;;2.90;1.10;;;;;;;20.95;73.98;100419.19;5093099;28;20040;-60
2023/07/27 03:53:36;;;;;;;0.90;0.75;;;;;;;20.82;74.53;100415.09;5092906;28;20047;-60
2023/07/27 03:56:04;;;;;;;1.65;0.80;;;;;;;20.73;75.17;100423.00;5104370;28;20056;-60
2023/07/27 03:58:32;;;;;;;2.97;0.82;;;;;;;20.73;75.50;100408.22;5074886;28;20075;-59
2023/07/27 04:00:59;;;;;;;1.58;0.70;;;;;;;20.92;75.12;100411.53;5092832;28;20044;-60
2023/07/27 04:03:27;;;;;;;2.45;0.98;;;;;;;21.13;74.23;100411.72;5082619;28;20521;-60
2023/07/27 04:05:54;;;;;;;2.95;0.80;;;;;;;20.81;74.87;100398.69;5109271;28;20490;-64
2023/07/27 04:08:23;;;;;;;2.15;1.00;;;;;;;20.66;76.22;100394.97;5074030;28;20044;-64
2023/07/27 04:10:50;;;;;;;1.45;0.80;;;;;;;21.07;74.63;100409.69;5110108;28;20070;-63
2023/07/27 04:13:17;;;;;;;1.58;0.90;;;;;;;20.94;74.87;100413.94;5073328;28;20044;-63
2023/07/27 04:15:45;;;;;;;3.22;1.20;;;;;;;20.94;75.81;100417.56;5112827;27;20051;-63
2023/07/27 04:18:12;;;;;;;2.58;0.90;;;;;;;20.69;76.31;100419.41;5110688;28;20058;-64
2023/07/27 04:20:40;;;;;;;2.70;0.90;;;;;;;20.61;76.94;100425.31;5072500;28;20051;-63
2023/07/27 04:23:07;;;;;;;2.33;1.00;;;;;;;20.61;76.94;100414.94;5090696;28;20040;-64
2023/07/27 04:25:34;;;;;;;3.38;0.75;;;;;;;20.76;77.19;100408.25;5110683;28;20796;-66
2023/07/27 04:28:02;;;;;;;1.55;0.90;;;;;;;20.54;77.37;100408.50;5108507;28;20047;-65
2023/07/27 04:30:29;;;;;;;2.20;1.00;;;;;;;20.54;77.76;100408.50;5090540;28;20063;-59
2023/07/27 04:32:56;;;;;;;3.67;1.10;;;;;;;20.55;77.68;100404.50;5092355;28;20047;-60
2023/07/27 04:35:24;;;;;;;2.10;0.82;;;;;;;20.49;78.27;100397.63;5095104;28;20138;-60
2023/07/27 04:37:51;;;;;;;2.55;0.98;;;;;;;20.53;78.07;100404.88;5087766;28;20395;-64
2023/07/27 04:40:19;;;;;;;3.47;1.00;;;;;;;20.63;77.67;100403.34;5072223;28;20054;-64
2023/07/27 04:42:46;;;;;;;2.55;1.00;;;;;;;20.46;78.25;100406.81;5093203;28;20056;-64
2023/07/27 04:45:13;;;;;;;3.83;1.00;;;;;;;20.68;77.62;100397.38;5078994;28;20661;-64
2023/07/27 04:47:41;;;;;;;2.15;1.20;;;;;;;21.18;75.63;100410.56;5097195;28;20044;-65
2023/07/27 04:50:09;;;;;;;2.85;1.02;;;;;;;20.99;75.26;100408.81;5115196;28;20054;-64
2023/07/27 04:52:36;;;;;;;4.53;1.35;;;;;;;20.83;76.51;100413.09;5115045;28;20062;-63
2023/07/27 04:55:04;;;;;;;1.35;0.75;;;;;;;20.84;76.75;100409.09;5109161;28;20052;-64
2023/07/27 04:57:31;;;;;;;1.85;0.90;;;;;;;20.76;76.95;100415.84;5113179;28;20039;-64
2023/07/27 04:59:59;;;;;;;3.20;1.10;;;;;;;21.06;75.54;100413.69;5114272;28;20407;-64
2023/07/27 05:02:26;;;;;;;2.78;1.10;;;;;;;20.89;76.48;100398.34;5114511;28;20662;-60
2023/07/27 05:04:54;;;;;;;3.20;1.20;;;;;;;20.82;76.67;100415.09;5112359;28;20055;-60
2023/07/27 05:07:21;;;;;;;2.97;1.10;;;;;;;20.71;77.50;100408.59;5111678;28;20434;-60
2023/07/27 05:09:49;;;;;;;1.45;0.90;;;;;;;20.76;77.75;100404.66;5078767;28;20066;-59
2023/07/27 05:12:16;;;;;;;1.98;0.75;;;;;;;20.96;77.26;100403.16;5114164;28;20044;-64
2023/07/27 05:14:43;;;;;;;1.95;1.08;;;;;;;20.79;77.64;100390.69;5095962;28;20055;-64
2023/07/27 05:17:11;;;;;;;2.63;1.23;;;;;;;20.70;78.42;100392.19;5112214;28;20070;-60
2023/07/27 05:19:38;;;;;;;3.83;1.20;;;;;;;21.03;77.04;100398.44;5113838;28;20043;-60
2023/07/27 05:22:05;;;;;;;2.95;1.10;;;;;;;20.91;77.15;100398.75;5115426;28;20047;-60
2023/07/27 05:24:33;;;;;;;2.40;1.10;;;;;;;20.77;78.00;100407.06;5096312;28;20051;-60
2023/07/27 05:27:00;;;;;;;3.80;0.95;;;;;;;21.19;76.43;100390.53;5114400;28;20678;-60
2023/07/27 05:29:27;;;;;;;2.17;1.17;;;;;;;21.03;76.57;100401.25;5102300;28;20055;-61
2023/07/27 05:31:55;;;;;;;4.25;1.20;;;;;;;20.85;77.58;100393.91;5114072;28;20062;-60
2023/07/27 05:34:22;;;;;;;1.58;1.10;;;;;;;20.67;78.28;100392.97;5109728;28;20054;-61
2023/07/27 05:36:50;;;;;;;2.38;1.40;;;;;;;20.97;77.87;100399.19;5113814;27;20047;-60
2023/07/27 05:39:17;;;;;;;3.60;1.33;;;;;;;20.92;77.59;100396.75;5095464;28;20063;-60
2023/07/27 05:41:44;;;;;;;2.97;1.40;;;;;;;20.73;78.36;100394.25;5112029;28;20043;-60
2023/07/27 05:44:12;;;;;;;2.40;1.40;;;;;;;20.64;79.29;100402.16;5112962;28;20483;-60
2023/07/27 05:46:39;;;;;;;2.63;1.40;;;;;;;20.71;79.12;100396.63;5093867;28;20052;-60
2023/07/27 05:49:07;;;;;;;3.22;1.50;;;;;;;20.85;78.21;100391.13;5113946;28;20039;-61
2023/07/27 05:51:38;;;;;;;2.42;1.50;;;;;;;21.06;77.02;100394.84;5114335;27;20043;-59
2023/07/27 05:54:05;;;;;;;3.60;1.30;;;;;;;21.22;76.84;100400.16;5094574;28;20047;-61
2023/07/27 05:56:33;;;;;;;3.45;1.55;;;;;;;21.14;76.62;100393.72;5112135;28;20051;-64
2023/07/27 05:59:01;;;;;;;4.22;1.80;;;;;;;21.01;77.05;100397.22;5113070;28;20051;-60
2023/07/27 06:01:28;;;;;;;2.70;1.50;;;;;;;21.15;76.81;100402.91;5096009;28;20055;-60
2023/07/27 06:04:00;;;;;;;8.05;1.70;;;;;;;21.15;76.12;100398.13;5112633;28;20046;-61
2023/07/27 06:06:35;;;;;;;4.35;1.75;;;;;;;21.05;76.87;100398.06;5069175;28;20055;-65
2023/07/27 06:09:03;;;;;;;2.63;1.65;;;;;;;21.16;76.76;100388.53;5085590;28;20067;-62
2023/07/27 06:11:31;;;;;;;3.65;1.67;;;;;;;21.08;76.79;100400.06;5114648;28;20122;-63
2023/07/27 06:13:58;;;;;;;4.57;1.73;;;;;;;21.14;77.09;100404.94;5075313;28;20047;-60
2023/07/27 06:16:25;;;;;;;3.80;1.77;;;;;;;21.06;76.91;100397.66;5131093;27;20062;-65
2023/07/27 06:18:53;;;;;;;10.95;2.55;;;;;;;21.24;77.51;100398.56;5123298;27;20044;-64
2023/07/27 06:21:20;;;;;;;8.60;4.70;;;;;;;21.23;76.57;100394.16;5098236;28;20367;-67
2023/07/27 06:23:48;;;;;;;4.22;2.33;;;;;;;21.25;75.85;100399.38;5108599;27;20040;-60
2023/07/27 06:26:15;;;;;;;9.32;3.45;;;;;;;21.54;75.11;100400.28;5090278;28;20062;-60
2023/07/27 06:28:42;;;;;;;3.35;1.88;;;;;;;21.63;74.31;100401.53;5089917;28;20066;-64
2023/07/27 06:31:10;;;;;;;4.55;1.70;;;;;;;21.70;73.84;100397.94;5109546;28;20048;-64
2023/07/27 06:33:38;;;;;;;7.72;2.10;;;;;;;21.63;73.85;100395.94;5106514;28;20040;-64
2023/07/27 06:36:08;;;;;;;3.88;1.98;;;;;;;21.73;73.33;100397.97;5086402;28;20058;-60
2023/07/27 06:38:36;;;;;;;6.85;2.15;;;;;;;21.66;73.47;100408.34;5106558;28;20047;-64
2023/07/27 06:41:03;;;;;;;4.10;1.88;;;;;;;21.92;72.09;100413.66;5105095;28;20050;-65
2023/07/27 06:43:31;;;;;;;6.18;1.80;;;;;;;21.62;72.71;100413.94;5108006;28;20048;-64
2023/07/27 06:45:58;;;;;;;8.95;2.50;;;;;;;21.48;73.31;100427.88;5110332;27;20048;-65
2023/07/27 06:48:26;;;;;;;6.93;2.67;;;;;;;21.67;73.37;100419.16;5091523;28;20114;-64
2023/07/27 06:50:54;;;;;;;6.13;2.00;;;;;;;21.55;73.32;100419.50;5106580;28;20529;-64
2023/07/27 06:53:21;;;;;;;5.03;1.80;;;;;;;21.57;73.06;100413.50;5089338;28;20462;-65
2023/07/27 06:55:49;;;;;;;2.95;1.67;;;;;;;21.69;72.73;100415.97;5087705;28;20062;-65
2023/07/27 06:58:16;;;;;;;3.38;1.80;;;;;;;21.62;73.06;100419.53;5107030;28;20051;-65
2023/07/27 07:00:44;;;;;;;4.57;2.13;;;;;;;21.74;72.84;100416.38;5103733;28;20112;-60
2023/07/27 07:03:13;;;;;;;3.97;1.92;;;;;;;21.92;71.22;100420.06;5104582;27;20058;-61
2023/07/27 07:05:41;;;;;;;4.60;2.30;;;;;;;21.83;71.91;100418.84;5108862;28;20040;-61
2023/07/27 07:08:08;;;;;;;5.88;1.88;;;;;;;21.61;71.90;100425.53;5072097;28;20799;-61
2023/07/27 07:10:36;;;;;;;8.40;1.80;;;;;;;21.59;72.49;100420.34;5111244;27;20074;-61
2023/07/27 07:13:04;;;;;;;5.68;1.60;;;;;;;21.35;73.34;100425.84;5111672;27;20042;-61
2023/07/27 07:15:31;;;;;;;5.15;1.70;;;;;;;21.73;71.76;100417.59;5091400;28;20059;-61
2023/07/27 07:17:59;;;;;;;5.47;1.95;;;;;;;21.47;72.03;100412.28;5073500;28;20048;-60
2023/07/27 07:20:26;;;;;;;4.38;1.95;;;;;;;21.43;72.26;100417.06;5107313;27;20054;-60
2023/07/27 07:22:53;;;;;;;5.40;2.00;;;;;;;21.36;70.35;100421.84;5104113;28;20047;-62
2023/07/27 07:25:21;;;;;;;6.47;2.50;;;;;;;20.90;69.97;100422.31;5109184;28;20048;-61
2023/07/27 07:27:48;;;;;;;6.20;2.75;;;;;;;20.96;69.88;100414.38;5110938;28;20043;-64
2023/07/27 07:30:16;;;;;;;5.85;3.17;;;;;;;21.01;68.32;100414.84;5077311;28;20036;-66
2023/07/27 07:32:44;;;;;;;6.25;3.22;;;;;;;21.05;67.01;100415.69;5110238;28;20051;-65
2023/07/27 07:35:12;;;;;;;7.25;3.35;;;;;;;20.94;65.89;100416.75;5107970;28;20047;-65
2023/07/27 07:37:42;;;;;;;6.35;3.50;;;;;;;21.22;65.82;100425.34;5110883;27;20051;-64
2023/07/27 07:40:10;;;;;;;5.93;3.22;;;;;;;21.05;65.54;100417.66;5090036;28;20052;-64
2023/07/27 07:42:37;;;;;;;7.85;3.13;;;;;;;21.18;65.55;100428.13;5107403;28;20055;-64
2023/07/27 07:45:05;;;;;;;6.45;2.92;;;;;;;21.19;65.09;100432.56;5092644;28;20055;-64
2023/07/27 07:47:33;;;;;;;8.25;3.00;;;;;;;21.13;64.85;100428.50;5107196;28;20051;-62
2023/07/27 07:50:00;;;;;;;5.18;2.65;;;;;;;21.02;64.46;100415.66;5102542;28;20055;-62
2023/07/27 07:52:27;;;;;;;5.50;2.80;;;;;;;21.12;65.56;100428.91;5090068;28;20047;-61
2023/07/27 07:54:56;;;;;;;7.43;2.78;;;;;;;20.85;65.08;100444.31;5109060;28;20052;-60
2023/07/27 07:57:23;;;;;;;7.97;2.60;;;;;;;20.83;66.46;100435.50;5108850;28;20051;-65
2023/07/27 07:59:51;;;;;;;4.28;2.20;;;;;;;20.97;66.05;100441.19;5109750;28;20129;-65
2023/07/27 08:02:18;;;;;;;5.10;2.40;;;;;;;21.13;65.37;100452.94;5088531;28;20458;-61
2023/07/27 08:04:46;;;;;;;7.38;2.40;;;;;;;20.98;65.63;100428.78;5110519;28;20046;-60
2023/07/27 08:07:13;;;;;;;6.47;2.28;;;;;;;21.23;64.69;100435.38;5108031;28;20056;-61
2023/07/27 08:09:41;;;;;;;4.32;2.00;;;;;;;21.00;64.97;100437.63;5109193;28;20112;-61
2023/07/27 08:12:08;;;;;;;4.47;1.92;;;;;;;21.23;65.36;100438.19;5090923;28;20051;-60
2023/07/27 08:14:36;;;;;;;5.53;1.90;;;;;;;21.22;64.93;100428.16;5110474;27;20043;-65
2023/07/27 08:17:03;;;;;;;4.50;2.00;;;;;;;21.37;64.61;100432.66;5108489;28;20046;-64
2023/07/27 08:19:33;;;;;;;3.30;1.70;;;;;;;21.38;64.54;100417.44;5108882;28;20055;-64
2023/07/27 08:22:01;;;;;;;7.20;1.95;;;;;;;21.74;63.80;100424.00;5075268;28;20059;-65
2023/07/27 08:24:28;;;;;;;4.38;1.98;;;;;;;21.67;63.00;100421.19;5108242;28;20040;-64
2023/07/27 08:26:56;;;;;;;8.18;2.28;;;;;;;21.79;63.34;100412.44;5110198;28;20039;-60
2023/07/27 08:29:23;;;;;;;4.97;1.98;;;;;;;22.13;62.44;100405.28;5076190;28;20414;-60
2023/07/27 08:31:50;;;;;;;5.60;1.95;;;;;;;22.28;61.15;100412.53;5109378;28;20048;-59
2023/07/27 08:34:18;;;;;;;6.88;2.00;;;;;;;22.12;61.76;100403.69;5091190;28;20106;-61
2023/07/27 08:36:47;;;;;;;3.78;1.80;;;;;;;22.09;61.52;100404.47;5086295;28;20050;-61
2023/07/27 08:39:14;;;;;;;30.23;3.80;;;;;;;22.69;60.06;100394.09;5109881;28;20758;-60
2023/07/27 08:41:42;;;;;;;20.60;3.08;;;;;;;22.65;60.31;100389.72;5101386;28;20050;-60
2023/07/27 08:44:11;;;;;;;6.50;2.53;;;;;;;22.80;59.43;100391.28;5087010;28;20514;-60
2023/07/27 08:46:41;;;;;;;6.28;2.05;;;;;;;22.67;60.51;100399.31;5102964;28;20040;-64
2023/07/27 08:49:12;;;;;;;3.93;1.90;;;;;;;22.65;59.86;100392.53;5106412;28;20490;-65
2023/07/27 08:51:44;;;;;;;4.38;2.03;;;;;;;22.73;59.63;100394.09;5086485;28;20524;-65
2023/07/27 08:54:11;;;;;;;4.00;2.00;;;;;;;22.61;59.64;100386.91;5107072;28;20521;-60
2023/07/27 08:56:39;;;;;;;4.93;2.30;;;;;;;22.58;60.04;100384.88;5085949;28;20414;-63
2023/07/27 08:59:06;;;;;;;6.35;2.15;;;;;;;22.79;59.12;100384.06;5105099;28;20043;-63
2023/07/27 09:01:33;;;;;;;6.63;1.90;;;;;;;22.85;58.92;100380.44;5101787;28;20047;-61
2023/07/27 09:04:01;;;;;;;5.25;2.10;;;;;;;22.87;59.17;100386.47;5104078;28;20056;-60
2023/07/27 09:06:45;;;;;;;5.25;2.40;;;;;;;22.79;58.74;100384.06;5108480;28;20040;-63
2023/07/27 09:09:13;;;;;;;4.70;2.30;;;;;;;22.85;58.91;100397.31;5107790;28;20051;-60
2023/07/27 09:11:42;;;;;;;3.88;2.20;;;;;;;22.84;58.96;100401.31;5110652;28;20047;-61
2023/07/27 09:14:14;;;;;;;7.53;2.50;;;;;;;23.27;57.85;100402.00;5106268;28;20414;-61
2023/07/27 09:16:41;;;;;;;7.35;2.05;;;;;;;23.52;57.00;100402.72;5109647;28;20039;-60
2023/07/27 09:19:10;;;;;;;4.57;1.77;;;;;;;23.58;56.12;100405.94;5109698;28;20048;-60
2023/07/27 09:21:49;;;;;;;6.45;2.00;;;;;;;23.31;56.76;100411.25;5107988;28;20051;-61
2023/07/27 09:24:16;;;;;;;5.13;2.10;;;;;;;23.29;56.83;100400.41;5082379;28;20051;-61
2023/07/27 09:26:47;;;;;;;6.53;1.90;;;;;;;23.54;55.77;100394.69;5106832;28;20063;-61
2023/07/27 09:29:17;;;;;;;5.68;1.98;;;;;;;23.55;55.35;100403.94;5086636;28;20051;-60
2023/07/27 09:31:52;;;;;;;3.40;1.70;;;;;;;23.41;55.55;100399.19;5102885;28;20447;-60
2023/07/27 09:34:20;;;;;;;5.78;2.28;;;;;;;23.52;55.51;100401.94;5102322;28;20056;-62
2023/07/27 09:36:51;;;;;;;5.38;2.03;;;;;;;23.65;55.70;100403.88;5074942;28;20040;-60
2023/07/27 09:39:19;;;;;;;3.83;2.00;;;;;;;23.84;54.84;100389.31;5105586;28;20055;-60
2023/07/27 09:41:51;;;;;;;3.83;2.00;;;;;;;23.80;54.49;100399.78;5108991;28;20114;-62
2023/07/27 09:44:19;;;;;;;3.55;2.15;;;;;;;24.09;53.63;100397.66;5107853;28;20043;-61
2023/07/27 09:46:47;;;;;;;5.90;2.25;;;;;;;23.52;55.24;100397.09;5089814;28;20523;-60
2023/07/27 09:49:15;;;;;;;4.20;1.92;;;;;;;23.80;55.15;100394.16;5092035;28;20043;-60
2023/07/27 09:51:44;;;;;;;8.50;2.20;;;;;;;23.99;53.70;100390.84;5105775;28;20052;-60
2023/07/27 09:54:12;;;;;;;5.60;2.55;;;;;;;23.97;54.23;100384.81;5109145;28;20047;-60
2023/07/27 09:56:40;;;;;;;4.60;2.20;;;;;;;24.07;53.76;100391.63;5105500;28;20494;-62
2023/07/27 09:59:08;;;;;;;4.88;2.20;;;;;;;23.48;54.73;100393.53;5105443;28;20058;-63
2023/07/27 10:01:36;;;;;;;4.65;2.00;;;;;;;23.78;55.34;100385.31;5109316;28;20054;-65
2023/07/27 10:04:03;;;;;;;4.88;2.20;;;;;;;23.79;54.67;100400.19;5087213;28;20051;-70
2023/07/27 10:06:32;;;;;;;7.10;2.45;;;;;;;23.88;55.07;100392.13;5085315;28;20740;-59
2023/07/27 10:09:00;;;;;;;7.05;2.38;;;;;;;24.21;54.46;100399.97;5109092;27;20048;-61
2023/07/27 10:11:29;;;;;;;6.18;2.50;;;;;;;24.40;54.04;100393.78;5108525;27;20431;-61
2023/07/27 10:14:15;;;;;;;14.40;4.90;;;;;;;24.68;53.08;100387.09;5087707;28;20561;-61
2023/07/27 10:17:08;;;;;;;21.58;10.38;;;;;;;24.75;52.32;100395.53;5107911;28;20059;-60
2023/07/27 10:19:43;;;;;;;16.08;3.90;;;;;;;24.23;54.11;100394.72;5085160;28;20067;-61
2023/07/27 10:22:16;;;;;;;6.43;3.55;;;;;;;24.34;54.05;100384.97;5106125;27;20050;-62
2023/07/27 10:24:51;;;;;;;7.28;3.83;;;;;;;24.35;53.42;100385.78;5108080;27;20047;-64
2023/07/27 10:27:19;;;;;;;12.80;8.27;;;;;;;24.50;53.57;100382.44;5093060;28;20047;-60
2023/07/27 10:29:54;;;;;;;12.70;6.00;;;;;;;24.58;52.18;100386.00;5110527;28;20446;-62
2023/07/27 10:32:22;;;;;;;7.72;4.68;;;;;;;24.49;52.43;100383.66;5084755;28;20163;-61
2023/07/27 10:34:52;;;;;;;8.77;4.75;;;;;;;24.25;52.77;100386.69;5106333;28;20047;-60
2023/07/27 10:37:21;;;;;;;7.10;4.03;;;;;;;24.27;52.74;100393.47;5099407;28;20052;-60
2023/07/27 10:39:51;;;;;;;7.38;4.43;;;;;;;24.05;53.59;100394.03;5105430;28;20084;-61
2023/07/27 10:42:21;;;;;;;9.00;6.40;;;;;;;24.04;53.57;100387.59;5107833;28;20048;-60
2023/07/27 10:44:54;;;;;;;10.07;7.30;;;;;;;23.75;55.08;100397.41;5106417;27;20052;-61
2023/07/27 10:47:26;;;;;;;15.68;12.27;;;;;;;24.00;54.79;100386.03;5105313;28;20051;-60
2023/07/27 10:49:58;;;;;;;51.42;28.60;;;;;;;24.14;53.84;100389.56;5109858;28;20051;-61
2023/07/27 10:52:31;;;;;;;90.57;42.00;;;;;;;24.44;53.42;100406.59;5108862;28;20058;-60
2023/07/27 10:54:59;;;;;;;52.10;26.17;;;;;;;24.44;53.58;100397.38;5109860;28;20048;-60
2023/07/27 10:57:28;;;;;;;17.05;10.02;;;;;;;24.51;53.62;100400.91;5074250;28;20382;-61
2023/07/27 10:59:56;;;;;;;18.27;10.75;;;;;;;24.51;53.75;100398.09;5105449;28;20063;-60
2023/07/27 11:02:25;;;;;;;11.18;7.40;;;;;;;24.46;53.30;100397.78;5101416;28;20052;-59
2023/07/27 11:04:58;;;;;;;14.27;7.43;;;;;;;24.16;53.93;100404.03;5110155;28;20047;-62
2023/07/27 11:07:34;;;;;;;10.10;6.40;;;;;;;23.94;54.90;100399.72;5090344;28;20046;-64
2023/07/27 11:10:13;;;;;;;9.07;5.10;;;;;;;24.00;54.92;100400.09;5086261;28;20541;-61
2023/07/27 11:12:52;;;;;;;8.07;4.47;;;;;;;23.93;56.38;100388.88;5093326;28;20036;-61
2023/07/27 11:15:24;;;;;;;10.65;4.72;;;;;;;23.69;57.81;100392.63;5108215;27;20044;-60
2023/07/27 11:17:54;;;;;;;10.30;4.68;;;;;;;23.67;59.32;100395.84;5109517;27;20055;-60
2023/07/27 11:20:24;;;;;;;9.35;5.53;;;;;;;23.82;59.73;100385.31;5108746;27;20446;-60
2023/07/27 11:22:52;;;;;;;6.10;3.38;;;;;;;23.92;60.32;100392.91;5108677;28;20051;-61
2023/07/27 11:25:20;;;;;;;6.70;3.20;;;;;;;23.28;60.93;100396.00;5103347;28;20048;-63
2023/07/27 11:27:49;;;;;;;8.93;3.33;;;;;;;23.58;60.77;100387.06;5083955;28;20066;-59
2023/07/27 11:30:17;;;;;;;9.45;4.97;;;;;;;23.90;60.28;100389.69;5105755;28;20058;-60
2023/07/27 11:33:01;;;;;;;8.38;5.55;;;;;;;23.75;59.69;100385.34;5087346;28;20048;-60